Time;durP1;ratioP1;P1;durP2;ratioP2;P2;SDS_P1;SDS_P2;PMS_P1;PMS_P2;Temp;Humidity;BMP_temperature;BMP_pressure;BME280_temperature;BME280_humidity;BME280_pressure;Samples;Min_cycle;Max_cycle;Signal;HPM_P1;HPM_P2
2022/04/16 00:00:17;;;;;;;;;;;5.80;99.90;;;;;;5005879;28;20273;-83
2022/04/16 00:02:45;;;;;;;;;;;5.80;99.90;;;;;;5020276;28;19936;-83
2022/04/16 00:05:13;;;;;;;;;;;5.80;99.90;;;;;;5005372;28;19921;-83
2022/04/16 00:07:42;;;;;;;;;;;5.70;99.90;;;;;;5025622;28;19925;-82
2022/04/16 00:10:17;;;;;;;27.80;18.60;;;5.70;99.90;;;;;;5010662;28;20208;-81
2022/04/16 00:12:47;;;;;;;;;;;5.70;99.90;;;;;;5027625;28;19925;-81
2022/04/16 00:15:18;;;;;;;;;;;5.70;99.90;;;;;;5018095;28;19925;-82
2022/04/16 00:17:50;;;;;;;;;;;5.60;99.90;;;;;;5020233;28;19921;-81
2022/04/16 00:20:25;;;;;;;;;;;5.10;99.90;;;;;;5001999;28;20378;-82
2022/04/16 00:22:53;;;;;;;;;;;5.60;99.90;;;;;;5017737;28;19921;-82
2022/04/16 00:25:20;;;;;;;;;;;5.70;99.90;;;;;;5019515;28;19929;-82
2022/04/16 00:27:47;;;;;;;;;;;5.60;99.90;;;;;;5009257;28;19921;-84
2022/04/16 00:30:15;;;;;;;;;;;5.60;99.90;;;;;;5017219;28;20012;-84
2022/04/16 00:32:41;;;;;;;;;;;5.50;99.90;;;;;;5003008;28;19921;-83
2022/04/16 00:35:09;;;;;;;;;;;5.60;99.90;;;;;;5017608;28;20334;-84
2022/04/16 00:37:36;;;;;;;;;;;5.50;99.90;;;;;;5017872;28;19922;-81
2022/04/16 00:40:06;;;;;;;;;;;5.60;99.90;;;;;;5015216;28;19926;-82
2022/04/16 00:42:33;;;;;;;;;;;5.60;99.90;;;;;;5023701;28;19976;-81
2022/04/16 00:45:00;;;;;;;;;;;5.50;99.90;;;;;;5015693;28;19941;-83
2022/04/16 00:47:26;;;;;;;;;;;5.50;99.90;;;;;;5011621;28;19925;-84
2022/04/16 00:49:55;;;;;;;;;;;5.50;99.90;;;;;;5014132;28;20003;-83
2022/04/16 00:52:22;;;;;;;;;;;5.50;99.90;;;;;;5014005;28;19952;-83
2022/04/16 00:54:50;;;;;;;;;;;5.60;99.90;;;;;;5001402;28;19940;-82
2022/04/16 00:57:18;;;;;;;;;;;5.60;99.90;;;;;;5010160;28;19925;-81
2022/04/16 00:59:45;;;;;;;;;;;5.60;99.90;;;;;;5019200;28;19922;-80
2022/04/16 01:02:12;;;;;;;;;;;5.60;99.90;;;;;;5027370;28;19909;-83
2022/04/16 01:04:39;;;;;;;;;;;6.40;99.90;;;;;;5026622;28;20404;-82
2022/04/16 01:07:07;;;;;;;;;;;5.70;99.90;;;;;;5012068;28;20005;-83
2022/04/16 01:09:35;;;;;;;;;;;5.70;99.90;;;;;;5005783;28;19921;-82
2022/04/16 01:12:05;;;;;;;;;;;5.70;99.90;;;;;;5005301;28;20226;-83
2022/04/16 01:14:34;;;;;;;;;;;5.70;99.90;;;;;;5024054;28;19944;-85
2022/04/16 01:17:01;;;;;;;;;;;5.70;99.90;;;;;;5034945;28;19920;-83
2022/04/16 01:19:27;;;;;;;;;;;5.70;99.90;;;;;;5015568;28;20000;-83
2022/04/16 01:21:54;;;;;;;;;;;5.70;99.90;;;;;;5016365;28;19981;-83
2022/04/16 01:24:22;;;;;;;;;;;5.70;99.90;;;;;;5024766;28;19936;-83
2022/04/16 01:26:51;;;;;;;;;;;6.00;99.90;;;;;;5034229;28;19932;-85
2022/04/16 01:29:18;;;;;;;;;;;5.60;99.90;;;;;;5019191;28;19917;-85
2022/04/16 01:31:45;;;;;;;;;;;5.60;99.90;;;;;;5029835;28;19930;-84
2022/04/16 01:34:14;;;;;;;;;;;5.60;99.90;;;;;;5016247;28;19969;-85
2022/04/16 01:36:41;;;;;;;;;;;5.60;99.90;;;;;;5016615;28;19968;-82
2022/04/16 01:39:08;;;;;;;;;;;5.60;99.90;;;;;;5015320;28;19913;-84
2022/04/16 01:41:36;;;;;;;;;;;5.60;99.90;;;;;;5031390;28;19909;-82
2022/04/16 01:44:03;;;;;;;;;;;5.60;99.90;;;;;;5032853;28;19919;-84
2022/04/16 01:46:30;;;;;;;;;;;5.50;99.90;;;;;;5030067;28;19971;-84
2022/04/16 01:48:56;;;;;;;;;;;5.50;99.90;;;;;;5024250;28;19922;-81
2022/04/16 01:51:24;;;;;;;;;;;5.50;99.90;;;;;;5024970;28;20007;-80
2022/04/16 01:53:51;;;;;;;;;;;5.50;99.90;;;;;;5009674;28;19956;-84
2022/04/16 01:56:18;;;;;;;;;;;5.50;99.90;;;;;;5013055;28;19921;-84
2022/04/16 01:58:49;;;;;;;;;;;5.80;99.90;;;;;;5013563;28;19957;-83
2022/04/16 02:01:18;;;;;;;;;;;5.50;99.90;;;;;;5013292;28;19937;-84
2022/04/16 02:03:44;;;;;;;;;;;5.60;99.90;;;;;;5031015;28;19917;-84
2022/04/16 02:06:11;;;;;;;;;;;5.50;99.90;;;;;;5031990;28;19991;-83
2022/04/16 02:08:38;;;;;;;;;;;5.70;99.90;;;;;;5026037;28;20012;-83
2022/04/16 02:11:04;;;;;;;;;;;5.50;99.90;;;;;;5001782;28;19926;-84
2022/04/16 02:13:31;;;;;;;;;;;5.50;99.90;;;;;;5002132;28;19928;-84
2022/04/16 02:15:59;;;;;;;;;;;5.40;99.90;;;;;;5016960;28;19932;-83
2022/04/16 02:18:27;;;;;;;;;;;5.40;99.90;;;;;;5000102;28;19921;-81
2022/04/16 02:20:54;;;;;;;;;;;5.40;99.90;;;;;;5015052;28;20024;-83
2022/04/16 02:23:21;;;;;;;;;;;5.40;99.90;;;;;;5000018;28;19932;-83
2022/04/16 02:25:47;;;;;;;;;;;5.40;99.90;;;;;;5021848;28;20004;-83
2022/04/16 02:28:14;;;;;;;;;;;5.40;99.90;;;;;;5014983;28;20385;-82
2022/04/16 02:30:41;;;;;;;;;;;5.40;99.90;;;;;;5022220;28;20124;-83
2022/04/16 02:33:10;;;;;;;;;;;5.50;99.90;;;;;;5015123;28;19925;-83
2022/04/16 02:35:38;;;;;;;;;;;5.40;99.90;;;;;;5008320;28;19921;-82
2022/04/16 02:38:05;;;;;;;;;;;5.40;99.90;;;;;;5002976;28;19993;-82
2022/04/16 02:40:31;;;;;;;;;;;5.50;99.90;;;;;;5010796;28;19921;-82
2022/04/16 02:42:58;;;;;;;;;;;5.50;99.90;;;;;;5019234;28;19921;-83
2022/04/16 02:48:22;;;;;;;;;;;5.50;99.90;;;;;;4985858;28;19968;-83
2022/04/16 02:50:52;;;;;;;;;;;5.50;99.90;;;;;;5007337;28;19931;-83
2022/04/16 02:53:19;;;;;;;;;;;5.50;99.90;;;;;;5000671;28;19992;-83
2022/04/16 02:55:48;;;;;;;;;;;5.50;99.90;;;;;;5018405;28;19925;-82
2022/04/16 02:58:15;;;;;;;;;;;5.00;99.90;;;;;;4999551;28;20003;-83
2022/04/16 03:00:42;;;;;;;;;;;5.40;99.90;;;;;;5017311;28;19933;-83
2022/04/16 03:03:09;;;;;;;;;;;5.40;99.90;;;;;;4999485;28;19936;-83
2022/04/16 03:05:37;;;;;;;;;;;5.40;99.90;;;;;;5017969;28;19929;-83
2022/04/16 03:08:06;;;;;;;;;;;5.40;99.90;;;;;;5007117;28;19944;-83
2022/04/16 03:10:33;;;;;;;;;;;5.40;99.90;;;;;;5008064;28;19956;-82
2022/04/16 03:12:59;;;;;;;;;;;5.40;99.90;;;;;;5017140;28;19996;-82
2022/04/16 03:18:11;;;;;;;;;;;6.40;99.90;;;;;;5000080;28;19925;-83
2022/04/16 03:20:40;;;;;;;;;;;5.30;99.90;;;;;;4999936;28;19936;-83
2022/04/16 03:23:07;;;;;;;;;;;5.30;99.90;;;;;;5019847;28;19921;-83
2022/04/16 03:25:33;;;;;;;;;;;5.20;99.90;;;;;;5007135;28;19913;-84
2022/04/16 03:28:00;;;;;;;;;;;5.20;99.90;;;;;;5014427;28;20385;-83
2022/04/16 03:30:27;;;;;;;;;;;6.00;99.90;;;;;;5003953;28;19933;-82
2022/04/16 03:32:56;;;;;;;;;;;5.10;99.90;;;;;;5008899;28;19921;-83
2022/04/16 03:35:24;;;;;;;;;;;5.10;99.90;;;;;;5016093;28;19921;-82
2022/04/16 03:37:55;;;;;;;;;;;5.20;99.90;;;;;;5014397;28;19944;-84
2022/04/16 03:40:24;;;;;;;;;;;5.10;99.90;;;;;;5035087;28;19980;-84
2022/04/16 03:42:51;;;;;;;;;;;5.10;99.90;;;;;;5030140;28;19917;-82
2022/04/16 03:45:20;;;;;;;;;;;5.10;99.90;;;;;;5034440;28;19925;-84
2022/04/16 03:47:47;;;;;;;;;;;5.10;99.90;;;;;;5032528;28;19909;-84
2022/04/16 03:50:15;;;;;;;;;;;5.00;99.90;;;;;;5034648;28;19985;-86
2022/04/16 03:52:42;;;;;;;;;;;5.00;99.90;;;;;;5014512;28;19920;-82
2022/04/16 04:00:43;;;;;;;;;;;5.00;99.90;;;;;;5016735;28;19922;-84
2022/04/16 04:03:09;;;;;;;;;;;5.00;99.90;;;;;;5018576;28;19931;-81
2022/04/16 04:05:37;;;;;;;;;;;5.00;99.90;;;;;;5027470;28;19925;-84
2022/04/16 04:08:05;;;;;;;;;;;5.00;99.90;;;;;;5014755;28;19940;-84
2022/04/16 04:10:37;;;;;;;;;;;5.00;99.90;;;;;;5025843;28;19921;-85
2022/04/16 04:13:06;;;;;;;;;;;5.00;99.90;;;;;;5009569;28;19957;-84
2022/04/16 04:15:33;;;;;;;;;;;5.00;99.90;;;;;;5009582;28;19922;-84
2022/04/16 04:18:01;;;;;;;;;;;5.00;99.90;;;;;;5011110;28;19925;-83
2022/04/16 04:20:28;;;;;;;;;;;5.00;99.90;;;;;;5021492;28;20504;-83
2022/04/16 04:22:55;;;;;;;;;;;4.90;99.90;;;;;;4996703;28;19929;-83
2022/04/16 04:25:22;;;;;;;;;;;4.90;99.90;;;;;;5007518;28;19909;-82
2022/04/16 04:27:50;;;;;;;;;;;4.90;99.90;;;;;;5017886;28;19925;-82
2022/04/16 04:30:17;;;;;;;;;;;4.80;99.90;;;;;;5019769;28;19928;-82
2022/04/16 04:32:44;;;;;;;;;;;4.90;99.90;;;;;;5001057;28;19921;-83
2022/04/16 04:35:10;;;;;;;;;;;4.90;99.90;;;;;;5020428;28;19944;-83
2022/04/16 04:37:37;;;;;;;;;;;4.90;99.90;;;;;;5017448;28;19980;-84
2022/04/16 04:40:05;;;;;;;;;;;4.90;99.90;;;;;;5006851;28;19925;-84
2022/04/16 04:42:32;;;;;;;;;;;4.90;99.90;;;;;;4992778;28;20432;-84
2022/04/16 04:45:06;;;;;;;;;;;4.90;99.90;;;;;;5004379;28;19926;-85
2022/04/16 04:47:33;;;;;;;;;;;4.90;99.90;;;;;;5016564;28;19960;-85
2022/04/16 04:50:00;;;;;;;;;;;5.00;99.90;;;;;;5011639;28;20297;-84
2022/04/16 04:52:29;;;;;;;;;;;5.00;99.90;;;;;;5014540;28;20698;-84
2022/04/16 04:54:56;;;;;;;;;;;5.00;99.90;;;;;;5015798;28;19944;-86
2022/04/16 04:57:23;;;;;;;;;;;5.00;99.90;;;;;;5026653;28;19925;-85
2022/04/16 04:59:49;;;;;;;;;;;5.10;99.90;;;;;;5003795;28;19921;-84
2022/04/16 05:02:18;;;;;;;;;;;5.10;99.90;;;;;;5000203;28;19972;-84
2022/04/16 05:04:45;;;;;;;;;;;5.10;99.90;;;;;;5005622;28;19932;-87
2022/04/16 05:07:11;;;;;;;;;;;5.10;99.90;;;;;;5015618;28;19928;-84
2022/04/16 05:09:38;;;;;;;;;;;5.20;99.90;;;;;;4999575;28;20036;-84
2022/04/16 05:12:05;;;;;;;;;;;5.30;99.90;;;;;;5014999;28;19925;-84
2022/04/16 05:14:33;;;;;;;;;;;5.30;99.90;;;;;;5014926;28;19932;-84
2022/04/16 05:17:00;;;;;;;;;;;5.30;99.90;;;;;;5004995;28;20378;-85
2022/04/16 05:19:29;;;;;;;;;;;5.40;99.90;;;;;;5015201;28;19921;-83
2022/04/16 05:21:56;;;;;;;;;;;6.00;99.90;;;;;;5004967;28;19925;-84
2022/04/16 05:24:23;;;;;;;72.87;35.50;;;5.60;99.90;;;;;;5014459;28;20418;-86
2022/04/16 05:26:51;;;;;;;68.90;35.30;;;5.70;99.90;;;;;;4996415;28;20214;-84
2022/04/16 05:29:18;;;;;;;89.60;38.50;;;5.90;99.90;;;;;;5014381;28;20238;-83
2022/04/16 05:31:45;;;;;;;80.67;38.13;;;6.00;99.90;;;;;;5015471;28;20206;-84
2022/04/16 05:34:20;;;;;;;87.20;39.03;;;6.30;99.90;;;;;;5017899;28;20211;-85
2022/04/16 05:36:50;;;;;;;79.23;38.23;;;6.30;99.90;;;;;;5033603;28;20198;-85
2022/04/16 05:39:17;;;;;;;68.83;35.87;;;6.70;99.90;;;;;;5030013;28;20240;-85
2022/04/16 05:41:59;;;;;;;62.57;31.13;;;8.10;99.90;;;;;;5015718;28;20194;-88
2022/04/16 05:44:27;;;;;;;47.93;28.50;;;8.20;99.90;;;;;;5014901;23;20483;-68
2022/04/16 05:46:54;;;;;;;45.57;27.67;;;8.90;99.90;;;;;;4995342;28;20233;-67
2022/04/16 05:49:21;;;;;;;36.90;25.57;;;9.70;99.90;;;;;;5006314;28;20214;-68
2022/04/16 05:51:49;;;;;;;34.17;24.90;;;10.50;99.90;;;;;;5003248;28;20211;-69
2022/04/16 05:54:16;;;;;;;33.20;22.57;;;11.40;99.90;;;;;;5004032;28;20612;-68
2022/04/16 05:56:43;;;;;;;26.10;19.70;;;12.30;99.90;;;;;;5001532;28;20235;-68
2022/04/16 05:59:10;;;;;;;22.83;18.77;;;13.10;99.90;;;;;;5001932;28;20295;-68
2022/04/16 06:01:37;;;;;;;23.53;17.33;;;13.90;99.90;;;;;;5001437;28;20213;-69
2022/04/16 06:04:04;;;;;;;22.17;17.30;;;14.60;99.90;;;;;;5004063;28;20206;-69
2022/04/16 06:06:31;;;;;;;23.67;17.80;;;15.40;99.90;;;;;;5003168;28;20718;-68
2022/04/16 06:08:59;;;;;;;22.10;17.67;;;16.10;99.90;;;;;;5002440;28;20203;-68
2022/04/16 06:11:28;;;;;;;20.20;17.33;;;16.50;99.90;;;;;;5013645;28;20209;-68
2022/04/16 06:13:55;;;;;;;21.23;17.00;;;16.90;99.90;;;;;;5002393;28;20233;-68
2022/04/16 06:16:22;;;;;;;20.60;16.93;;;17.00;99.90;;;;;;5003332;28;20230;-69
2022/04/16 06:18:49;;;;;;;22.33;16.70;;;17.40;99.90;;;;;;5002403;28;20217;-68
2022/04/16 06:21:16;;;;;;;20.87;16.60;;;17.80;99.90;;;;;;5000775;28;20443;-68
2022/04/16 06:23:43;;;;;;;19.37;15.93;;;18.10;99.90;;;;;;5002456;28;20719;-69
2022/04/16 06:26:11;;;;;;;19.40;15.27;;;18.30;99.90;;;;;;5004569;28;20206;-69
2022/04/16 06:28:38;;;;;;;19.80;15.87;;;18.70;99.90;;;;;;5003040;28;20220;-70
2022/04/16 06:31:05;;;;;;;16.53;14.27;;;19.00;99.90;;;;;;5008099;28;20215;-70
2022/04/16 06:33:32;;;;;;;17.87;14.83;;;19.20;99.90;;;;;;5005217;28;20227;-70
2022/04/16 06:35:58;;;;;;;17.83;15.57;;;19.40;99.90;;;;;;5004569;28;20256;-70
2022/04/16 06:38:26;;;;;;;17.17;14.50;;;19.70;99.90;;;;;;5003820;28;20218;-70
2022/04/16 06:40:52;;;;;;;13.03;9.70;;;20.10;99.90;;;;;;5007104;28;20240;-70
2022/04/16 06:43:21;;;;;;;16.43;12.83;;;20.30;99.90;;;;;;5001068;28;20582;-70
2022/04/16 06:45:51;;;;;;;14.47;12.43;;;20.40;99.90;;;;;;5001128;28;20215;-70
2022/04/16 06:48:19;;;;;;;15.00;12.70;;;20.50;99.90;;;;;;5001508;28;20240;-70
2022/04/16 06:50:45;;;;;;;15.20;13.60;;;20.50;99.90;;;;;;4996399;28;20801;-68
2022/04/16 06:53:12;;;;;;;13.53;11.90;;;20.50;99.90;;;;;;5001393;28;20233;-68
2022/04/16 06:55:39;;;;;;;15.10;11.63;;;20.70;99.90;;;;;;5004566;28;20220;-69
2022/04/16 06:58:06;;;;;;;17.73;12.17;;;20.60;99.90;;;;;;5002586;28;20230;-70
2022/04/16 07:00:34;;;;;;;14.23;11.47;;;20.20;99.90;;;;;;4999946;28;20249;-68
2022/04/16 07:03:01;;;;;;;10.03;8.50;;;20.10;99.90;;;;;;5009218;28;20206;-69
2022/04/16 07:05:28;;;;;;;13.87;11.80;;;20.00;99.90;;;;;;5000488;28;20210;-70
2022/04/16 07:07:55;;;;;;;15.23;11.17;;;19.80;99.90;;;;;;5000260;28;20222;-68
2022/04/16 07:10:22;;;;;;;14.03;12.07;;;20.10;99.90;;;;;;4999598;28;20226;-68
2022/04/16 07:12:49;;;;;;;14.13;11.13;;;20.30;99.90;;;;;;4997573;28;20212;-68
2022/04/16 07:15:15;;;;;;;13.77;11.20;;;20.50;99.90;;;;;;5000554;28;20214;-69
2022/04/16 07:17:45;;;;;;;14.70;11.77;;;20.60;99.90;;;;;;5003758;28;20232;-69
2022/04/16 07:20:12;;;;;;;13.13;10.73;;;20.80;99.90;;;;;;5009402;28;20598;-69
2022/04/16 07:22:39;;;;;;;14.87;12.10;;;21.00;99.90;;;;;;5012902;28;20738;-69
2022/04/16 07:25:07;;;;;;;14.70;9.87;;;21.10;99.90;;;;;;5007578;28;20594;-69
2022/04/16 07:27:34;;;;;;;13.10;11.53;;;21.30;99.90;;;;;;5008222;28;20234;-69
2022/04/16 07:30:01;;;;;;;14.13;12.00;;;21.60;99.90;;;;;;5007738;28;20222;-69
2022/04/16 07:32:28;;;;;;;13.17;11.60;;;22.00;99.90;;;;;;5001597;28;20214;-70
2022/04/16 07:34:56;;;;;;;13.33;11.60;;;22.40;99.90;;;;;;5012000;28;20221;-69
2022/04/16 07:37:23;;;;;;;13.00;11.70;;;22.50;99.90;;;;;;5005899;28;20235;-68
2022/04/16 07:39:50;;;;;;;14.40;11.73;;;22.70;99.90;;;;;;5002425;28;20245;-69
2022/04/16 07:42:17;;;;;;;18.03;12.23;;;23.10;99.90;;;;;;5004253;28;20214;-70
2022/04/16 07:44:44;;;;;;;12.90;11.50;;;23.20;99.90;;;;;;5006333;28;20621;-69
2022/04/16 07:47:11;;;;;;;11.33;9.33;;;22.90;99.90;;;;;;5007350;28;20226;-69
2022/04/16 07:49:38;;;;;;;10.70;8.47;;;22.70;99.90;;;;;;5002960;28;20220;-69
2022/04/16 07:52:08;;;;;;;15.27;10.77;;;22.60;99.90;;;;;;4997939;28;20212;-69
2022/04/16 07:54:36;;;;;;;12.30;10.97;;;22.40;99.90;;;;;;5007088;28;20240;-70
2022/04/16 07:57:04;;;;;;;10.23;9.20;;;22.10;99.90;;;;;;5008138;28;20312;-69
2022/04/16 07:59:31;;;;;;;8.77;7.70;;;22.30;99.90;;;;;;5007611;28;20595;-69
2022/04/16 08:01:58;;;;;;;12.27;9.70;;;22.00;99.70;;;;;;5006029;28;20199;-69
2022/04/16 08:04:25;;;;;;;12.00;10.80;;;21.50;99.90;;;;;;5000883;28;20205;-69
2022/04/16 08:06:52;;;;;;;10.53;9.43;;;21.50;99.90;;;;;;5005643;28;20234;-69
2022/04/16 08:09:20;;;;;;;11.70;9.70;;;21.50;99.90;;;;;;5006205;28;20602;-68
2022/04/16 08:11:47;;;;;;;11.00;9.43;;;21.70;99.90;;;;;;5007839;28;20215;-69
2022/04/16 08:14:15;;;;;;;11.43;10.23;;;21.90;99.90;;;;;;5007175;28;20229;-69
2022/04/16 08:16:41;;;;;;;10.43;9.33;;;21.90;99.90;;;;;;5009380;28;20244;-69
2022/04/16 08:19:08;;;;;;;10.63;9.53;;;21.90;99.90;;;;;;5003889;28;20214;-69
2022/04/16 08:21:35;;;;;;;9.10;8.13;;;21.70;99.90;;;;;;5015048;28;20226;-70
2022/04/16 08:24:13;;;;;;;8.83;7.50;;;21.80;99.70;;;;;;4998965;28;20205;-69
2022/04/16 08:26:41;;;;;;;8.30;7.40;;;21.60;98.50;;;;;;5003837;28;20794;-69
2022/04/16 08:29:09;;;;;;;8.57;7.67;;;21.70;97.70;;;;;;5018782;28;20320;-69
2022/04/16 08:31:35;;;;;;;8.57;7.67;;;21.50;98.30;;;;;;5000440;28;20259;-70
2022/04/16 08:34:02;;;;;;;9.07;7.93;;;21.30;98.20;;;;;;4997281;28;20232;-69
2022/04/16 08:36:29;;;;;;;8.93;7.27;;;21.20;99.30;;;;;;5001163;28;20304;-69
2022/04/16 08:38:56;;;;;;;8.30;7.10;;;21.50;99.10;;;;;;5002321;28;20211;-68
2022/04/16 08:41:26;;;;;;;8.43;7.17;;;21.60;98.10;;;;;;5002065;28;20214;-69
2022/04/16 08:43:55;;;;;;;7.67;6.87;;;21.70;98.10;;;;;;5006442;28;20214;-68
2022/04/16 08:46:23;;;;;;;8.73;7.20;;;21.90;98.40;;;;;;5001737;28;20272;-69
2022/04/16 08:48:50;;;;;;;9.00;6.40;;;21.80;96.70;;;;;;5002856;28;20218;-69
2022/04/16 08:51:17;;;;;;;8.00;7.17;;;21.50;96.20;;;;;;5001632;28;20417;-68
2022/04/16 08:53:44;;;;;;;9.20;8.07;;;20.90;96.20;;;;;;5003160;28;20229;-68
2022/04/16 08:56:11;;;;;;;12.27;7.90;;;20.10;97.70;;;;;;5003161;28;20214;-68
2022/04/16 08:58:39;;;;;;;9.10;8.17;;;20.10;97.90;;;;;;5003046;28;20319;-68
2022/04/16 09:01:07;;;;;;;8.43;7.40;;;19.80;97.90;;;;;;4999307;28;20209;-69
2022/04/16 09:03:35;;;;;;;8.83;7.20;;;19.90;99.60;;;;;;4995551;28;20222;-69
2022/04/16 09:06:03;;;;;;;8.17;5.67;;;20.40;99.90;;;;;;4999439;28;20242;-70
2022/04/16 09:08:31;;;;;;;8.37;7.30;;;20.80;97.20;;;;;;5009046;28;20988;-69
2022/04/16 09:11:10;;;;;;;7.17;6.27;;;20.90;97.40;;;;;;4997736;28;20206;-69
2022/04/16 09:13:41;;;;;;;9.90;6.87;;;21.20;96.00;;;;;;4997491;28;20211;-68
2022/04/16 09:16:10;;;;;;;9.17;6.60;;;20.00;95.10;;;;;;5003520;28;20222;-67
2022/04/16 09:18:50;;;;;;;8.20;6.50;;;19.10;94.90;;;;;;4999385;28;20245;-68
2022/04/16 09:21:17;;;;;;;6.73;5.87;;;19.70;96.20;;;;;;5007557;28;20215;-69
2022/04/16 09:23:50;;;;;;;6.67;5.90;;;19.80;96.60;;;;;;5006673;28;20223;-69
2022/04/16 09:26:31;;;;;;;8.10;5.30;;;19.60;95.50;;;;;;5003643;28;20321;-69
2022/04/16 09:29:05;;;;;;;5.13;3.97;;;19.70;96.30;;;;;;5001189;28;20211;-69
2022/04/16 09:31:35;;;;;;;5.40;4.40;;;20.10;95.20;;;;;;4999123;28;20235;-69
2022/04/16 09:34:02;;;;;;;6.13;5.50;;;20.40;95.30;;;;;;5003490;28;20249;-69
2022/04/16 09:36:29;;;;;;;8.53;7.27;;;20.70;94.80;;;;;;5005645;28;20244;-69
2022/04/16 09:39:04;;;;;;;9.90;7.83;;;20.40;94.40;;;;;;5001046;28;20538;-68
2022/04/16 09:41:32;;;;;;;5.73;4.60;;;19.90;94.50;;;;;;4995896;28;20223;-69
2022/04/16 09:44:00;;;;;;;4.33;3.27;;;19.10;93.90;;;;;;5003942;28;20321;-69
2022/04/16 09:46:28;;;;;;;6.60;4.67;;;18.40;93.20;;;;;;5004081;28;20230;-68
2022/04/16 09:49:02;;;;;;;7.77;5.33;;;17.70;94.10;;;;;;4998796;28;20214;-69
2022/04/16 09:51:33;;;;;;;6.57;4.93;;;17.10;94.40;;;;;;4995274;28;20237;-68
2022/04/16 09:54:03;;;;;;;7.53;5.20;;;16.60;94.90;;;;;;5003044;28;20309;-68
2022/04/16 09:56:33;;;;;;;6.07;3.80;;;16.20;95.30;;;;;;4997616;28;20229;-69
2022/04/16 09:59:02;;;;;;;6.93;4.27;;;16.00;95.70;;;;;;4995207;28;20241;-68
2022/04/16 10:01:29;;;;;;;7.13;4.43;;;15.90;95.70;;;;;;4999997;28;20312;-70
2022/04/16 10:03:58;;;;;;;6.30;3.87;;;15.70;95.40;;;;;;5005132;28;20562;-68
2022/04/16 10:06:25;;;;;;;7.20;4.43;;;15.60;95.50;;;;;;5002520;28;20237;-68
2022/04/16 10:08:53;;;;;;;7.37;5.03;;;15.40;95.60;;;;;;5014448;28;20213;-69
2022/04/16 10:11:41;;;;;;;6.63;4.87;;;15.40;96.00;;;;;;4996934;28;20224;-69
2022/04/16 10:14:17;;;;;;;5.57;4.13;;;15.30;96.20;;;;;;5006368;28;20224;-68
2022/04/16 10:16:55;;;;;;;7.10;5.43;;;15.30;96.30;;;;;;5000953;28;20388;-69
2022/04/16 10:19:23;;;;;;;8.20;6.00;;;15.30;96.80;;;;;;5001988;28;20213;-69
2022/04/16 10:21:54;;;;;;;7.30;5.80;;;15.30;97.10;;;;;;5003568;28;20213;-69
2022/04/16 10:24:25;;;;;;;7.67;5.63;;;15.40;97.70;;;;;;5002818;28;20210;-68
2022/04/16 10:26:52;;;;;;;7.30;5.53;;;15.50;97.70;;;;;;5006325;28;20237;-69
2022/04/16 10:29:20;;;;;;;6.60;4.40;;;15.50;96.70;;;;;;5005311;28;20206;-68
2022/04/16 10:31:50;;;;;;;4.97;3.37;;;15.50;96.30;;;;;;5004103;28;20213;-69
2022/04/16 10:34:20;;;;;;;6.77;5.30;;;15.30;94.80;;;;;;4997916;28;20256;-69
2022/04/16 10:36:53;;;;;;;6.67;5.23;;;15.10;96.10;;;;;;4996530;28;20248;-69
2022/04/16 10:39:24;;;;;;;8.20;6.57;;;15.20;96.70;;;;;;4998368;28;20283;-68
2022/04/16 10:41:55;;;;;;;7.53;5.37;;;15.20;97.70;;;;;;5001732;28;20209;-70
2022/04/16 10:44:23;;;;;;;10.13;6.27;;;15.40;97.90;;;;;;5009873;28;20258;-69
2022/04/16 10:46:51;;;;;;;5.90;4.60;;;15.60;97.40;;;;;;5003200;28;20226;-67
2022/04/16 10:49:19;;;;;;;5.30;4.30;;;15.60;97.20;;;;;;5007791;28;20215;-68
2022/04/16 10:51:50;;;;;;;8.33;5.27;;;15.70;96.10;;;;;;5003345;28;20220;-68
2022/04/16 10:54:28;;;;;;;7.13;4.87;;;15.60;95.50;;;;;;5007017;28;20232;-67
2022/04/16 10:59:46;;;;;;;7.40;5.53;;;15.80;96.90;;;;;;4999810;28;20227;-69
2022/04/16 11:02:23;;;;;;;8.03;6.27;;;15.80;96.70;;;;;;5009244;28;20224;-69
2022/04/16 11:04:57;;;;;;;8.30;6.20;;;15.90;96.80;;;;;;5016086;28;20213;-69
2022/04/16 11:07:24;;;;;;;5.70;4.53;;;16.00;96.60;;;;;;5022307;28;20232;-70
2022/04/16 11:09:54;;;;;;;8.40;6.57;;;16.00;95.70;;;;;;4988853;28;20203;-69
2022/04/16 11:12:21;;;;;;;7.23;5.57;;;16.00;96.40;;;;;;5022750;22;20693;-74
2022/04/16 11:14:50;;;;;;;8.30;5.87;;;16.10;96.40;;;;;;5024589;28;20334;-74
2022/04/16 11:17:19;;;;;;;7.03;5.87;;;16.00;96.20;;;;;;5023103;28;20215;-75
2022/04/16 11:19:48;;;;;;;6.10;4.93;;;16.00;96.50;;;;;;5024250;28;20213;-73
2022/04/16 11:22:16;;;;;;;8.30;5.73;;;16.10;97.00;;;;;;5022272;28;20232;-73
2022/04/16 11:24:44;;;;;;;7.63;5.70;;;16.30;96.80;;;;;;5010669;28;20694;-75
2022/04/16 11:35:26;;;;;;;7.10;5.20;;;16.70;96.00;;;;;;5011890;28;20237;-77
2022/04/16 11:37:56;;;;;;;5.43;3.90;;;16.70;96.50;;;;;;5025985;28;20210;-73
2022/04/16 11:40:23;;;;;;;7.23;5.03;;;16.30;95.30;;;;;;5010936;28;20220;-73
2022/04/16 11:42:52;;;;;;;6.57;5.20;;;16.90;96.00;;;;;;5009639;28;20854;-75
2022/04/16 11:45:19;;;;;;;5.37;3.97;;;17.00;95.30;;;;;;5006219;28;20220;-75
2022/04/16 11:47:49;;;;;;;7.60;5.60;;;16.90;95.10;;;;;;5001857;28;20531;-74
2022/04/16 11:50:18;;;;;;;8.10;5.00;;;16.80;95.30;;;;;;5006904;28;20670;-74
2022/04/16 11:52:50;;;;;;;5.80;4.80;;;16.90;95.90;;;;;;5019865;28;20233;-73
2022/04/16 11:55:19;;;;;;;7.73;5.37;;;17.00;95.60;;;;;;5006359;28;20248;-73
2022/04/16 11:57:47;;;;;;;6.23;4.70;;;16.90;95.50;;;;;;5007248;28;20210;-74
2022/04/16 12:00:19;;;;;;;6.60;4.20;;;16.90;95.20;;;;;;5005949;28;20199;-74
2022/04/16 12:02:47;;;;;;;5.60;4.70;;;16.90;94.80;;;;;;5008208;28;20225;-74
2022/04/16 12:05:15;;;;;;;6.60;5.23;;;17.00;94.80;;;;;;5023913;28;20217;-74
2022/04/16 12:07:43;;;;;;;5.23;3.77;;;17.10;95.50;;;;;;5008072;28;20245;-75
2022/04/16 12:10:14;;;;;;;5.77;3.87;;;17.40;95.40;;;;;;5010320;28;20221;-74
2022/04/16 12:12:47;;;;;;;13.40;5.03;;;17.30;93.50;;;;;;5546817;22;20241;-75
2022/04/16 12:15:23;;;;;;;3.77;3.17;;;17.30;93.80;;;;;;4991289;28;20740;-75
2022/04/16 12:17:50;;;;;;;5.17;3.77;;;17.30;94.00;;;;;;4983409;28;20286;-76
2022/04/16 12:20:20;;;;;;;4.57;4.10;;;17.40;94.00;;;;;;4984000;28;20307;-76
2022/04/16 12:22:49;;;;;;;8.80;4.97;;;17.30;93.50;;;;;;4978801;28;20238;-76
2022/04/16 12:25:17;;;;;;;5.73;4.77;;;17.20;93.60;;;;;;4985001;28;20218;-75
2022/04/16 12:27:45;;;;;;;6.53;4.40;;;17.20;93.60;;;;;;4984442;28;20633;-76
2022/04/16 12:30:17;;;;;;;4.90;4.07;;;17.20;93.10;;;;;;4987108;28;20627;-76
2022/04/16 12:32:57;;;;;;;4.33;3.67;;;17.30;93.00;;;;;;5003515;23;20245;-85
2022/04/16 12:35:25;;;;;;;5.10;4.10;;;17.40;93.10;;;;;;5014491;28;20268;-86
2022/04/16 12:37:53;;;;;;;6.83;4.57;;;17.50;93.00;;;;;;5011344;28;20349;-86
2022/04/16 12:40:22;;;;;;;4.87;4.37;;;17.50;92.90;;;;;;4990068;28;20222;-87
2022/04/16 12:42:49;;;;;;;5.30;4.07;;;17.50;92.90;;;;;;4994476;28;20203;-86
2022/04/16 12:45:18;;;;;;;6.93;4.50;;;17.60;91.60;;;;;;4997102;28;20236;-85
2022/04/16 12:47:46;;;;;;;5.93;3.73;;;17.50;91.60;;;;;;4995842;28;20219;-86
2022/04/16 12:50:14;;;;;;;5.43;3.60;;;17.40;92.50;;;;;;5000791;28;20234;-85
2022/04/16 12:52:41;;;;;;;5.67;3.60;;;17.60;92.20;;;;;;5005296;28;20589;-86
2022/04/16 12:55:16;;;;;;;5.10;3.43;;;17.70;91.90;;;;;;4999146;28;20436;-85
2022/04/16 12:57:44;;;;;;;5.60;4.37;;;17.80;91.90;;;;;;4996689;28;20220;-85
2022/04/16 13:00:16;;;;;;;6.47;4.10;;;17.80;91.90;;;;;;4998350;28;20319;-86
2022/04/16 13:02:45;;;;;;;7.07;3.90;;;17.80;91.80;;;;;;5005770;28;20226;-87
2022/04/16 13:05:16;;;;;;;5.10;3.97;;;17.70;91.90;;;;;;4994313;28;20900;-85
2022/04/16 13:07:46;;;;;;;6.60;4.30;;;17.80;91.00;;;;;;4988315;28;20586;-86
2022/04/16 13:10:14;;;;;;;4.93;4.07;;;18.10;91.50;;;;;;4992420;28;20238;-86
2022/04/16 13:12:42;;;;;;;5.17;3.40;;;18.20;90.50;;;;;;5005174;28;20307;-88
2022/04/16 13:15:20;;;;;;;6.83;3.93;;;18.20;90.80;;;;;;4995517;28;20246;-90
2022/04/16 13:17:47;;;;;;;4.47;3.50;;;;;;;;;;4996552;28;20199;-87
2022/04/16 13:20:16;;;;;;;3.47;2.80;;;;;;;;;;4977521;28;20232;-88
2022/04/16 13:31:25;;;;;;;6.03;3.67;;;18.30;89.50;;;;;;4772566;29;20218;-88
2022/04/16 13:37:57;;;;;;;7.80;3.10;;;;;;;;;;4841298;29;20239;-89
2022/04/16 13:44:02;;;;;;;5.30;2.93;;;18.10;87.80;;;;;;4995231;28;20214;-89
2022/04/16 14:17:47;;;;;;;4.57;2.67;;;18.70;81.40;;;;;;4855088;29;20266;-88
2022/04/16 14:43:00;;;;;;;2.47;2.00;;;18.60;78.60;;;;;;4801637;29;20282;-87
2022/04/16 14:57:40;;;;;;;15.10;3.63;;;18.30;75.70;;;;;;4758092;30;20364;-88
2022/04/16 15:00:44;;;;;;;2.30;1.70;;;18.40;73.80;;;;;;4744481;30;21023;-87
2022/04/16 15:07:32;;;;;;;2.53;2.03;;;18.40;74.10;;;;;;4823847;29;20354;-87
2022/04/16 15:10:24;;;;;;;3.23;1.90;;;18.30;73.80;;;;;;4784593;29;20841;-88
2022/04/16 15:39:27;;;;;;;3.43;1.60;;;18.20;68.60;;;;;;4889238;29;20501;-87
2022/04/16 15:45:18;;;;;;;2.07;1.40;;;18.10;68.00;;;;;;4950546;29;20921;-88